Time;durP1;ratioP1;P1;durP2;ratioP2;P2;SDS_P1;SDS_P2;PMS_P1;PMS_P2;Temp;Humidity;BMP_temperature;BMP_pressure;BME280_temperature;BME280_humidity;BME280_pressure;Samples;Min_cycle;Max_cycle;Signal;HPM_P1;HPM_P2
2021/03/30 00:02:25;;;;;;;28.10;16.05;;;;;;;12.50;66.70;101321.19;5098365;28;20057;-76
2021/03/30 00:05:10;;;;;;;30.40;16.40;;;;;;;12.49;66.73;101317.69;5107344;28;20100;-78
2021/03/30 00:07:55;;;;;;;30.95;17.65;;;;;;;12.51;66.67;101317.66;5106493;28;20518;-76
2021/03/30 00:10:41;;;;;;;28.77;16.88;;;;;;;12.50;66.54;101306.28;5109911;28;20548;-78
2021/03/30 00:13:27;;;;;;;27.38;17.80;;;;;;;12.54;66.53;101311.44;5104919;28;20171;-78
2021/03/30 00:16:12;;;;;;;37.65;19.25;;;;;;;12.50;66.60;101311.53;5107910;28;20387;-76
2021/03/30 00:18:57;;;;;;;43.13;20.88;;;;;;;12.49;66.53;101309.81;5106759;28;20058;-77
2021/03/30 00:21:42;;;;;;;44.47;22.42;;;;;;;12.47;66.59;101308.97;5100783;28;20461;-76
2021/03/30 00:24:26;;;;;;;40.53;19.48;;;;;;;12.49;66.68;101303.66;5103361;28;20394;-77
2021/03/30 00:27:11;;;;;;;34.70;17.42;;;;;;;12.48;66.72;101296.69;5107064;28;20105;-76
2021/03/30 00:29:56;;;;;;;30.48;17.08;;;;;;;12.47;66.54;101293.19;5104536;28;20089;-76
2021/03/30 00:32:42;;;;;;;26.58;17.13;;;;;;;12.46;66.71;101294.09;5099823;28;20120;-77
2021/03/30 00:35:27;;;;;;;26.38;15.93;;;;;;;12.46;66.72;101294.09;5105845;28;20134;-76
2021/03/30 00:38:12;;;;;;;25.75;16.08;;;;;;;12.48;66.44;101294.03;5107087;28;20084;-76
2021/03/30 00:40:58;;;;;;;28.23;16.15;;;;;;;12.45;66.64;101289.75;5101909;28;20050;-76
2021/03/30 00:43:43;;;;;;;31.02;17.05;;;;;;;12.40;66.69;101283.75;5107237;28;20062;-75
2021/03/30 00:46:28;;;;;;;40.47;20.92;;;;;;;12.38;66.73;101288.22;5108118;28;20108;-76
2021/03/30 00:49:14;;;;;;;72.05;29.35;;;;;;;12.38;66.84;101287.34;5105355;28;20518;-76
2021/03/30 00:51:59;;;;;;;72.47;29.80;;;;;;;12.38;66.76;101289.97;5104015;28;20059;-76
2021/03/30 00:54:45;;;;;;;62.42;25.50;;;;;;;12.38;66.75;101290.84;5107679;28;20078;-74
2021/03/30 00:57:30;;;;;;;40.25;21.80;;;;;;;12.37;66.81;101294.38;5102459;28;20051;-75
2021/03/30 01:00:16;;;;;;;40.25;21.05;;;;;;;12.35;66.91;101288.31;5109104;28;20077;-77
2021/03/30 01:03:02;;;;;;;44.92;22.05;;;;;;;12.40;66.63;101294.28;5107566;28;20904;-77
2021/03/30 01:05:47;;;;;;;44.03;20.55;;;;;;;12.43;66.69;101301.22;5108799;28;20170;-77
2021/03/30 01:08:46;;;;;;;34.15;19.60;;;;;;;12.44;66.54;101301.16;5115076;28;20577;-77
2021/03/30 01:11:39;;;;;;;36.15;18.92;;;;;;;12.41;66.64;101298.63;5112259;28;20051;-75
2021/03/30 01:14:37;;;;;;;47.70;24.08;;;;;;;12.39;66.79;101297.81;5111809;28;20078;-74
2021/03/30 01:17:33;;;;;;;60.58;27.65;;;;;;;12.36;66.85;101300.53;5110785;28;20057;-77
2021/03/30 01:20:53;;;;;;;58.97;26.67;;;;;;;12.38;66.88;101298.72;5104677;28;20437;-76
2021/03/30 01:23:57;;;;;;;58.83;26.25;;;;;;;12.37;66.91;101290.88;5110685;28;20185;-76
2021/03/30 01:26:50;;;;;;;49.80;23.98;;;;;;;12.37;66.81;101289.13;5105264;28;20050;-76
2021/03/30 01:29:43;;;;;;;40.83;20.08;;;;;;;12.41;66.87;101292.50;5112148;28;20058;-75
2021/03/30 01:32:33;;;;;;;38.53;19.90;;;;;;;12.43;66.63;101288.06;5109232;28;20169;-77
2021/03/30 01:35:23;;;;;;;36.83;19.13;;;;;;;12.41;66.63;101290.75;5108244;28;20466;-75
2021/03/30 01:38:11;;;;;;;39.22;20.08;;;;;;;12.45;66.39;101297.63;5108343;28;20112;-77
2021/03/30 01:40:57;;;;;;;38.42;20.17;;;;;;;12.48;66.58;101297.53;5108998;28;20105;-76
2021/03/30 01:43:45;;;;;;;57.75;25.92;;;;;;;12.48;66.69;101291.41;5111262;28;20043;-77
2021/03/30 01:46:31;;;;;;;58.65;26.92;;;;;;;12.50;66.57;101290.50;5106948;28;20062;-77
2021/03/30 01:49:19;;;;;;;46.50;22.20;;;;;;;12.50;66.56;101290.50;5108094;28;20089;-76
2021/03/30 01:52:05;;;;;;;45.28;21.63;;;;;;;12.54;66.54;101290.41;5104449;28;20063;-76
2021/03/30 01:54:50;;;;;;;45.58;21.45;;;;;;;12.55;66.37;101292.13;5109825;28;20054;-77
2021/03/30 01:57:38;;;;;;;39.47;21.48;;;;;;;12.55;66.50;101284.22;5107039;28;20430;-77
2021/03/30 02:00:25;;;;;;;42.88;21.25;;;;;;;12.53;66.49;101284.28;5104114;28;20139;-77
2021/03/30 02:03:12;;;;;;;41.92;21.10;;;;;;;12.54;66.61;101282.50;5109972;28;20471;-77
2021/03/30 02:05:58;;;;;;;50.13;23.25;;;;;;;12.55;66.46;101292.13;5105388;28;20050;-77
2021/03/30 02:08:44;;;;;;;52.20;25.15;;;;;;;12.55;66.53;101290.34;5108010;28;20043;-75
2021/03/30 02:11:32;;;;;;;47.58;25.05;;;;;;;12.57;66.44;101290.31;5112645;28;20054;-77
2021/03/30 02:14:17;;;;;;;55.13;26.73;;;;;;;12.60;66.34;101287.56;5111726;28;20051;-74
2021/03/30 02:17:07;;;;;;;44.20;22.25;;;;;;;12.60;66.30;101284.94;5103519;28;20119;-75
2021/03/30 02:20:00;;;;;;;38.03;21.20;;;;;;;12.59;66.40;101288.47;5107056;28;20050;-76
2021/03/30 02:22:50;;;;;;;31.10;19.10;;;;;;;12.59;66.46;101291.97;5105476;28;20423;-75
2021/03/30 02:25:37;;;;;;;30.80;19.30;;;;;;;12.61;66.40;101292.78;5111645;28;20088;-76
2021/03/30 02:28:28;;;;;;;36.33;19.40;;;;;;;12.60;66.46;101295.47;5109750;28;20050;-76
2021/03/30 02:31:16;;;;;;;37.70;20.42;;;;;;;12.63;66.35;101300.63;5104075;28;20058;-77
2021/03/30 02:34:05;;;;;;;54.08;22.88;;;;;;;12.60;66.25;101291.06;5109896;28;20047;-77
2021/03/30 02:36:54;;;;;;;45.10;21.40;;;;;;;12.61;66.53;101294.56;5108323;28;20108;-76
2021/03/30 02:39:41;;;;;;;45.60;22.20;;;;;;;12.63;66.48;101295.38;5108478;28;20054;-76
2021/03/30 02:42:27;;;;;;;44.95;22.73;;;;;;;12.63;66.42;101290.97;5110717;28;20080;-76
2021/03/30 02:45:15;;;;;;;49.17;23.70;;;;;;;12.57;66.63;101291.16;5110296;28;20055;-75
2021/03/30 02:48:02;;;;;;;60.72;26.35;;;;;;;12.56;66.78;101293.84;5103000;28;20109;-77
2021/03/30 02:50:48;;;;;;;55.60;26.52;;;;;;;12.57;66.54;101290.31;5104865;28;20498;-76
2021/03/30 02:53:35;;;;;;;56.08;23.60;;;;;;;12.56;66.80;101285.94;5113131;28;20086;-75
2021/03/30 02:56:21;;;;;;;41.28;20.65;;;;;;;12.58;66.73;101292.03;5112831;28;20092;-81
2021/03/30 02:59:06;;;;;;;34.95;19.45;;;;;;;12.62;66.72;101298.91;5104529;28;20366;-80
2021/03/30 03:01:52;;;;;;;30.65;19.05;;;;;;;12.62;66.79;101296.28;5111259;28;20074;-80
2021/03/30 03:04:36;;;;;;;37.88;19.70;;;;;;;12.62;66.76;101291.00;5107424;28;20047;-81
2021/03/30 03:07:27;;;;;;;33.45;19.67;;;;;;;12.61;66.95;101291.94;5111004;28;20536;-81
2021/03/30 03:10:14;;;;;;;33.85;18.83;;;;;;;12.61;66.87;101291.94;5110250;28;20066;-81
2021/03/30 03:13:00;;;;;;;34.85;19.20;;;;;;;12.61;66.51;101298.03;5111060;28;20070;-80
2021/03/30 03:15:46;;;;;;;35.47;19.23;;;;;;;12.67;66.85;101291.72;5109800;28;20078;-82
2021/03/30 03:18:31;;;;;;;39.65;20.73;;;;;;;12.69;66.90;101296.03;5102952;28;20059;-79
2021/03/30 03:21:17;;;;;;;32.38;19.45;;;;;;;12.70;66.86;101289.91;5109148;28;20141;-81
2021/03/30 03:24:03;;;;;;;31.67;20.88;;;;;;;12.71;66.88;101282.88;5108854;28;20062;-80
2021/03/30 03:26:59;;;;;;;34.58;20.15;;;;;;;12.70;66.93;101275.84;5106293;28;20514;-80
2021/03/30 03:29:44;;;;;;;33.38;20.77;;;;;;;12.73;66.93;101281.03;5111053;28;20055;-80
2021/03/30 03:32:31;;;;;;;37.13;22.17;;;;;;;12.73;66.80;101275.78;5110349;28;20510;-79
2021/03/30 03:35:22;;;;;;;37.00;23.48;;;;;;;12.65;67.17;101277.75;5102597;28;20101;-80
2021/03/30 03:38:25;;;;;;;38.58;22.55;;;;;;;12.64;67.15;101282.16;5113603;28;20063;-82
2021/03/30 03:41:15;;;;;;;32.25;19.38;;;;;;;12.61;67.16;101274.38;5111287;28;20092;-80
2021/03/30 03:44:03;;;;;;;39.47;22.08;;;;;;;12.63;67.31;101279.59;5109098;28;20109;-81
2021/03/30 03:46:49;;;;;;;37.55;23.75;;;;;;;12.65;67.21;101280.41;5113048;28;20565;-77
2021/03/30 03:49:34;;;;;;;45.97;25.30;;;;;;;12.63;67.30;101280.44;5110408;28;20123;-77
2021/03/30 03:52:24;;;;;;;39.67;24.92;;;;;;;12.60;67.45;101280.53;5101966;28;20102;-76
2021/03/30 03:55:11;;;;;;;40.88;23.50;;;;;;;12.62;67.55;101277.88;5101060;28;20062;-77
2021/03/30 03:58:06;;;;;;;42.00;22.65;;;;;;;12.60;67.43;101277.06;5113763;28;20469;-82
2021/03/30 04:00:52;;;;;;;36.08;21.58;;;;;;;12.63;67.37;101290.09;5111952;28;20081;-80
2021/03/30 04:03:48;;;;;;;36.72;21.63;;;;;;;12.55;67.59;101281.59;5106983;28;20093;-80
2021/03/30 04:06:39;;;;;;;36.30;22.15;;;;;;;12.62;67.39;101293.66;5109232;28;20568;-79
2021/03/30 04:09:26;;;;;;;;;;;;;;;12.78;66.64;101295.78;5110274;28;20116;-79
2021/03/30 04:12:12;;;;;;;47.55;25.27;;;;;;;12.71;66.94;101301.28;5105932;28;19927;-81
2021/03/30 04:14:58;;;;;;;39.40;22.77;;;;;;;12.65;67.21;101297.03;5105860;28;20054;-81
2021/03/30 04:17:44;;;;;;;35.70;21.13;;;;;;;12.64;67.31;101297.09;5107682;28;20046;-80
2021/03/30 04:20:30;;;;;;;38.58;22.08;;;;;;;12.62;67.44;101305.03;5112147;28;20416;-82
2021/03/30 04:23:15;;;;;;;33.83;22.20;;;;;;;12.63;67.46;101308.53;5112070;28;20497;-81
2021/03/30 04:25:59;;;;;;;50.33;29.17;;;;;;;12.62;67.48;101309.44;5112013;28;20112;-81
2021/03/30 04:28:45;;;;;;;47.35;30.55;;;;;;;12.62;67.54;101315.56;5111511;28;20612;-80
2021/03/30 04:31:29;;;;;;;58.42;33.03;;;;;;;12.68;67.35;101319.75;5113058;28;20054;-79
2021/03/30 04:34:16;;;;;;;45.05;25.60;;;;;;;12.68;67.39;101325.88;5112748;28;20106;-79
2021/03/30 04:37:00;;;;;;;40.80;22.55;;;;;;;12.69;67.44;101319.72;5113988;28;20088;-80
2021/03/30 04:39:48;;;;;;;39.15;24.55;;;;;;;12.70;67.47;101318.84;5113440;28;20415;-80
2021/03/30 04:42:32;;;;;;;38.50;22.40;;;;;;;12.69;67.64;101318.84;5113286;28;20505;-80
2021/03/30 04:45:17;;;;;;;46.40;26.83;;;;;;;12.71;67.67;101327.59;5111759;28;20050;-80
2021/03/30 04:48:02;;;;;;;38.25;23.88;;;;;;;12.74;67.55;101324.88;5113057;28;20050;-79
2021/03/30 04:50:48;;;;;;;39.85;25.45;;;;;;;12.71;67.50;101317.06;5109790;28;20043;-80
2021/03/30 04:53:34;;;;;;;43.17;27.48;;;;;;;12.66;67.59;101311.06;5111734;28;20347;-80
2021/03/30 04:56:19;;;;;;;43.28;30.20;;;;;;;12.66;67.66;101313.69;5111068;28;20406;-81
2021/03/30 04:59:04;;;;;;;64.85;36.40;;;;;;;12.60;68.02;101312.09;5113115;28;20108;-80
2021/03/30 05:01:49;;;;;;;75.93;43.90;;;;;;;12.64;67.83;101318.13;5112601;28;20055;-79
2021/03/30 05:04:33;;;;;;;66.75;38.88;;;;;;;12.66;67.69;101311.91;5112312;28;20131;-80
2021/03/30 05:07:19;;;;;;;61.00;32.95;;;;;;;12.64;67.68;101308.47;5112409;28;20104;-80
2021/03/30 05:10:04;;;;;;;43.63;27.92;;;;;;;12.65;67.79;101317.22;5111974;28;20121;-80
2021/03/30 05:12:49;;;;;;;43.25;26.58;;;;;;;12.69;67.71;101316.22;5112208;28;20075;-79
2021/03/30 05:15:34;;;;;;;43.30;27.05;;;;;;;12.76;67.47;101323.03;5112154;28;20055;-79
2021/03/30 05:18:18;;;;;;;55.47;32.70;;;;;;;12.83;67.33;101327.19;5111423;28;20055;-79
2021/03/30 05:21:03;;;;;;;50.10;32.97;;;;;;;12.75;67.58;101326.59;5112110;28;20088;-77
2021/03/30 05:23:50;;;;;;;46.20;28.15;;;;;;;12.72;67.71;101321.41;5102003;28;20054;-79
2021/03/30 05:26:34;;;;;;;53.35;30.17;;;;;;;12.76;67.47;101336.19;5106413;28;20047;-80
2021/03/30 05:29:19;;;;;;;46.33;28.17;;;;;;;12.76;67.55;101338.84;5110294;28;20456;-80
2021/03/30 05:32:05;;;;;;;44.20;25.77;;;;;;;12.80;67.50;101340.47;5116631;28;20131;-82
2021/03/30 05:34:52;;;;;;;42.05;25.67;;;;;;;12.85;67.51;101343.81;5106146;28;20058;-81
2021/03/30 05:37:37;;;;;;;43.63;26.70;;;;;;;12.89;67.36;101345.44;5107731;28;20391;-77
2021/03/30 05:40:22;;;;;;;47.25;27.67;;;;;;;12.90;67.22;101354.19;5105465;28;20046;-78
2021/03/30 05:43:09;;;;;;;45.05;27.13;;;;;;;12.87;67.33;101354.28;5103833;28;20512;-80
2021/03/30 05:45:59;;;;;;;46.72;27.58;;;;;;;12.88;67.46;101348.97;5102241;28;20051;-79
2021/03/30 05:48:46;;;;;;;41.03;25.40;;;;;;;12.97;67.22;101351.34;5102375;28;20141;-79
2021/03/30 05:51:33;;;;;;;41.45;26.02;;;;;;;13.03;66.93;101343.25;5100711;28;20065;-79
2021/03/30 05:54:19;;;;;;;44.45;25.48;;;;;;;13.10;66.98;101360.56;5104577;28;20063;-78
2021/03/30 05:57:11;;;;;;;36.72;23.00;;;;;;;13.15;66.76;101354.31;5105311;28;20093;-79
2021/03/30 05:59:56;;;;;;;;;;;;;;;13.33;66.05;101351.13;5102498;28;20075;-78
2021/03/30 06:02:44;;;;;;;42.65;23.95;;;;;;;13.26;66.21;101352.22;5102873;28;19935;-79
2021/03/30 06:05:29;;;;;;;35.75;21.67;;;;;;;13.28;66.22;101356.53;5101512;28;20047;-79
2021/03/30 06:08:14;;;;;;;35.03;20.60;;;;;;;13.30;66.16;101351.19;5104064;28;20051;-79
2021/03/30 06:11:04;;;;;;;37.28;22.40;;;;;;;13.39;66.01;101351.78;5104020;28;20166;-78
2021/03/30 06:13:54;;;;;;;46.55;28.15;;;;;;;13.45;66.07;101355.13;5105611;28;20078;-79
2021/03/30 06:16:40;;;;;;;56.08;30.20;;;;;;;13.51;65.82;101349.66;5101154;28;20158;-78
2021/03/30 06:19:25;;;;;;;38.90;26.65;;;;;;;13.57;65.87;101358.22;5101704;28;20125;-78
2021/03/30 06:22:12;;;;;;;35.75;23.45;;;;;;;13.64;65.48;101345.69;5102983;28;20115;-79
2021/03/30 06:24:57;;;;;;;34.92;23.00;;;;;;;13.64;65.71;101349.19;5103748;28;20060;-79
2021/03/30 06:27:42;;;;;;;38.72;24.75;;;;;;;13.78;65.19;101353.16;5104460;28;20078;-80
2021/03/30 06:30:30;;;;;;;47.20;29.98;;;;;;;14.00;64.80;101351.50;5101363;28;20410;-78
2021/03/30 06:33:19;;;;;;;51.77;32.63;;;;;;;14.17;64.36;101359.69;5101376;28;20090;-80
2021/03/30 06:36:18;;;;;;;44.05;29.35;;;;;;;14.41;64.12;101350.00;5111694;28;20238;-79
2021/03/30 06:39:05;;;;;;;44.00;28.25;;;;;;;14.54;63.43;101351.28;5114585;28;20089;-78
2021/03/30 06:41:55;;;;;;;38.83;25.50;;;;;;;14.76;63.09;101356.63;5113695;28;20433;-78
2021/03/30 06:44:40;;;;;;;38.00;24.08;;;;;;;15.01;62.42;101361.00;5113288;28;20136;-80
2021/03/30 06:47:26;;;;;;;33.92;22.48;;;;;;;15.40;61.53;101358.50;5109473;28;20343;-73
2021/03/30 06:50:19;;;;;;;35.28;22.25;;;;;;;16.12;59.70;101351.09;5110861;28;20135;-77
2021/03/30 06:53:10;;;;;;;30.80;20.85;;;;;;;16.83;58.13;101347.00;5110221;28;20395;-77
2021/03/30 06:55:56;;;;;;;33.55;23.05;;;;;;;17.48;57.08;101360.63;5108520;28;20141;-77
2021/03/30 06:58:55;;;;;;;31.67;21.33;;;;;;;18.74;54.09;101355.88;5109788;28;20071;-77
2021/03/30 07:01:41;;;;;;;27.58;18.55;;;;;;;19.03;53.36;101355.13;5108055;28;20502;-77
2021/03/30 07:04:27;;;;;;;31.17;18.65;;;;;;;19.58;52.18;101352.03;5109643;28;20058;-76
2021/03/30 07:07:12;;;;;;;31.30;17.83;;;;;;;19.64;52.14;101362.31;5110816;28;20058;-76
2021/03/30 07:09:58;;;;;;;26.25;16.58;;;;;;;21.21;48.56;101362.34;5100221;28;20593;-75
2021/03/30 07:12:46;;;;;;;24.20;16.25;;;;;;;23.92;43.12;101364.53;5111189;28;20124;-77
2021/03/30 07:15:31;;;;;;;21.88;15.10;;;;;;;27.17;37.15;101355.28;5110422;28;20054;-77
2021/03/30 07:18:22;;;;;;;26.55;14.98;;;;;;;29.66;32.92;101357.34;5108005;28;20126;-78
2021/03/30 07:21:13;;;;;;;18.80;14.43;;;;;;;30.63;32.12;101356.34;5110849;28;20172;-77
2021/03/30 07:24:00;;;;;;;22.40;14.15;;;;;;;28.21;35.02;101360.78;5107926;28;20050;-77
2021/03/30 07:26:47;;;;;;;18.85;13.73;;;;;;;25.53;38.79;101366.81;5110080;28;20100;-79
2021/03/30 07:29:39;;;;;;;20.50;13.00;;;;;;;24.87;39.51;101362.44;5111931;28;20100;-83
2021/03/30 07:32:30;;;;;;;18.05;13.25;;;;;;;24.92;38.66;101361.09;5112190;28;20074;-78
2021/03/30 07:35:17;;;;;;;19.20;12.40;;;;;;;24.72;38.80;101363.66;5110422;28;20493;-80
2021/03/30 07:38:09;;;;;;;21.70;13.48;;;;;;;24.56;38.52;101364.03;5111938;28;20070;-78
2021/03/30 07:40:54;;;;;;;21.95;14.82;;;;;;;24.49;38.96;101368.19;5108161;28;20518;-79
2021/03/30 07:43:40;;;;;;;19.85;13.73;;;;;;;24.86;37.90;101360.75;5099077;28;20054;-76
2021/03/30 07:46:26;;;;;;;17.55;12.80;;;;;;;25.45;36.79;101368.44;5110299;28;20124;-78
2021/03/30 07:49:11;;;;;;;19.27;13.73;;;;;;;25.34;37.00;101366.63;5109669;28;20077;-78
2021/03/30 07:52:16;;;;;;;22.00;13.88;;;;;;;25.50;36.77;101372.44;5108749;28;20058;-77
2021/03/30 07:55:18;;;;;;;19.50;13.32;;;;;;;26.23;35.67;101376.09;5099049;28;20078;-77
2021/03/30 07:58:10;;;;;;;20.35;13.48;;;;;;;24.96;37.05;101383.16;5105315;28;20051;-78
2021/03/30 08:00:55;;;;;;;20.98;14.02;;;;;;;24.63;37.42;101387.56;5108978;28;20050;-77
2021/03/30 08:03:42;;;;;;;15.57;12.05;;;;;;;24.13;38.46;101380.75;5091650;28;20501;-77
2021/03/30 08:06:30;;;;;;;18.17;12.90;;;;;;;23.83;38.88;101380.44;5097167;28;20453;-77
2021/03/30 08:09:19;;;;;;;19.05;13.73;;;;;;;23.26;39.71;101392.69;5105812;28;20128;-77
2021/03/30 08:12:20;;;;;;;21.83;14.23;;;;;;;22.85;40.64;101392.16;5108307;28;20514;-77
2021/03/30 08:15:05;;;;;;;22.63;13.43;;;;;;;22.40;41.47;101399.75;5109900;28;20521;-77
2021/03/30 08:17:52;;;;;;;23.35;14.77;;;;;;;21.85;42.26;101399.00;5095250;28;20053;-78
2021/03/30 08:21:04;;;;;;;19.38;14.05;;;;;;;21.63;43.09;101403.22;5106168;28;20493;-78
2021/03/30 08:24:09;;;;;;;22.80;13.85;;;;;;;21.42;43.62;101403.66;5108909;28;20518;-77
2021/03/30 08:26:55;;;;;;;19.02;13.48;;;;;;;21.19;43.46;101401.59;5090630;28;20073;-78
2021/03/30 08:29:41;;;;;;;19.08;13.07;;;;;;;20.63;44.53;101408.72;5109552;28;20419;-78
2021/03/30 08:32:27;;;;;;;18.23;12.63;;;;;;;20.20;45.29;101407.78;5110889;28;20490;-78
2021/03/30 08:35:31;;;;;;;20.58;12.48;;;;;;;20.01;45.29;101406.25;5109879;28;20446;-79
2021/03/30 08:38:43;;;;;;;20.17;13.68;;;;;;;19.78;46.36;101410.25;5110432;28;20132;-79
2021/03/30 08:41:54;;;;;;;20.60;13.55;;;;;;;19.75;46.04;101405.09;5110940;28;20254;-77
2021/03/30 08:44:51;;;;;;;18.60;11.52;;;;;;;19.73;46.86;101412.31;5094388;28;20055;-78
2021/03/30 08:47:40;;;;;;;18.92;12.40;;;;;;;20.33;45.29;101409.63;5109855;28;20051;-78
2021/03/30 08:50:27;;;;;;;17.65;12.00;;;;;;;20.42;44.93;101413.56;5110474;28;20136;-78
2021/03/30 08:53:19;;;;;;;16.95;12.00;;;;;;;20.18;45.63;101418.50;5111860;28;20229;-79
2021/03/30 08:56:09;;;;;;;18.50;12.23;;;;;;;20.24;45.89;101418.16;5103450;28;20055;-76
2021/03/30 08:58:57;;;;;;;14.35;10.93;;;;;;;20.04;46.51;101421.16;5101403;28;20054;-76
2021/03/30 09:01:43;;;;;;;23.30;15.30;;;;;;;19.89;46.86;101427.38;5106162;28;20536;-79
2021/03/30 09:04:33;;;;;;;24.75;16.73;;;;;;;19.52;47.60;101426.81;5100933;28;20089;-79
2021/03/30 09:07:19;;;;;;;16.73;11.75;;;;;;;19.09;48.68;101431.00;5105098;28;20517;-80
2021/03/30 09:10:05;;;;;;;16.63;11.35;;;;;;;19.07;49.03;101423.13;5109542;28;20055;-79
2021/03/30 09:12:49;;;;;;;15.57;10.82;;;;;;;19.55;47.85;101424.00;5105550;28;20117;-79
2021/03/30 09:15:34;;;;;;;16.55;10.30;;;;;;;19.62;47.78;101435.16;5103977;28;20047;-80
2021/03/30 09:18:26;;;;;;;12.20;9.00;;;;;;;22.09;43.88;101420.56;5108691;28;20051;-79
2021/03/30 09:21:15;;;;;;;15.75;10.15;;;;;;;24.40;38.97;101417.16;5108325;28;20075;-78
2021/03/30 09:24:01;;;;;;;10.75;7.20;;;;;;;24.65;38.27;101416.09;5103290;28;20490;-77
2021/03/30 09:26:49;;;;;;;9.75;7.45;;;;;;;22.90;41.78;101414.06;5111809;28;20159;-78
2021/03/30 09:29:36;;;;;;;11.27;7.72;;;;;;;21.65;43.95;101420.81;5110784;28;20058;-79
2021/03/30 09:32:22;;;;;;;10.63;7.43;;;;;;;21.08;45.59;101414.78;5114049;28;20086;-79
2021/03/30 09:35:12;;;;;;;9.63;6.45;;;;;;;20.72;45.62;101416.16;5111256;28;20066;-78
2021/03/30 09:37:58;;;;;;;9.95;6.93;;;;;;;21.01;45.33;101422.28;5106441;28;20415;-77
2021/03/30 09:40:44;;;;;;;12.13;7.05;;;;;;;20.99;45.62;101417.06;5113896;28;20055;-79
2021/03/30 09:43:30;;;;;;;7.32;6.15;;;;;;;20.29;46.91;101415.22;5109709;28;20050;-80
2021/03/30 09:46:14;;;;;;;11.13;7.10;;;;;;;19.70;48.04;101423.13;5111406;28;20074;-79
2021/03/30 09:49:00;;;;;;;9.95;7.53;;;;;;;19.31;48.92;101425.34;5108247;28;20066;-79
2021/03/30 09:51:46;;;;;;;12.73;9.10;;;;;;;19.03;49.29;101421.59;5110751;28;20148;-79
2021/03/30 09:54:38;;;;;;;13.13;9.73;;;;;;;18.83;49.51;101430.63;5112459;28;20054;-80
2021/03/30 09:57:26;;;;;;;16.90;11.02;;;;;;;18.79;49.84;101422.94;5114556;28;20123;-79
2021/03/30 10:00:14;;;;;;;15.13;10.18;;;;;;;18.77;49.93;101419.50;5124827;28;20493;-79
2021/03/30 10:03:00;;;;;;;16.38;10.73;;;;;;;18.87;50.01;101418.03;5110681;28;20418;-78
2021/03/30 10:05:45;;;;;;;14.52;10.43;;;;;;;18.87;49.64;101421.56;5108165;28;20054;-82
2021/03/30 10:08:31;;;;;;;17.27;10.85;;;;;;;18.79;50.15;101418.47;5110448;28;20051;-81
2021/03/30 10:11:27;;;;;;;18.05;11.43;;;;;;;18.65;49.91;101423.66;5106853;28;20043;-81
2021/03/30 10:14:26;;;;;;;15.50;11.55;;;;;;;18.46;50.98;101426.38;5097812;28;20058;-81
2021/03/30 10:17:18;;;;;;;20.85;12.57;;;;;;;18.28;50.99;101424.69;5123129;28;20058;-83
2021/03/30 10:20:04;;;;;;;17.48;10.45;;;;;;;17.92;51.54;101430.94;5109093;28;20051;-80
2021/03/30 10:22:51;;;;;;;15.77;11.10;;;;;;;17.60;52.05;101431.63;5113318;28;20109;-81
2021/03/30 10:25:37;;;;;;;17.10;10.48;;;;;;;17.69;52.28;101431.22;5113354;28;20047;-80
2021/03/30 10:28:27;;;;;;;17.75;11.25;;;;;;;17.85;51.88;101428.66;5112332;28;20088;-80
2021/03/30 10:31:15;;;;;;;20.90;13.20;;;;;;;17.90;52.21;101424.84;5109581;28;20096;-81
2021/03/30 10:34:00;;;;;;;17.55;12.35;;;;;;;17.92;51.61;101425.66;5110265;28;20082;-81
2021/03/30 10:36:45;;;;;;;18.50;10.07;;;;;;;17.90;51.68;101427.50;5109211;28;20071;-79
2021/03/30 10:39:31;;;;;;;16.75;10.20;;;;;;;18.00;51.55;101422.59;5110345;28;20485;-77
2021/03/30 10:42:18;;;;;;;12.85;8.18;;;;;;;18.52;49.99;101428.72;5111519;28;20050;-77
2021/03/30 10:45:06;;;;;;;15.30;9.30;;;;;;;19.06;49.08;101424.06;5112455;28;20406;-78
2021/03/30 10:47:59;;;;;;;18.08;10.15;;;;;;;19.34;48.42;101422.53;5111441;28;20079;-77
2021/03/30 10:50:45;;;;;;;14.15;8.70;;;;;;;19.26;48.91;101422.09;5111110;28;20559;-75
2021/03/30 10:53:30;;;;;;;10.00;5.88;;;;;;;18.89;49.58;101424.13;5111229;28;20042;-78
2021/03/30 10:56:15;;;;;;;10.20;6.78;;;;;;;18.64;49.75;101434.38;5110220;28;20043;-76
2021/03/30 10:59:07;;;;;;;7.70;4.75;;;;;;;18.32;50.38;101428.91;5092616;28;20096;-76
2021/03/30 11:01:52;;;;;;;7.85;5.10;;;;;;;18.20;50.77;101437.50;5091546;28;20058;-76
2021/03/30 11:04:37;;;;;;;11.63;5.57;;;;;;;18.03;51.22;101442.81;5098061;28;20799;-76
2021/03/30 11:07:22;;;;;;;8.77;5.82;;;;;;;18.02;51.04;101435.78;5111475;28;20173;-77
2021/03/30 11:10:10;;;;;;;10.85;6.90;;;;;;;17.99;50.71;101431.50;5108204;28;20082;-76
2021/03/30 11:12:55;;;;;;;10.88;6.80;;;;;;;18.07;50.85;101429.28;5111845;28;20150;-76
2021/03/30 11:15:41;;;;;;;12.05;6.80;;;;;;;18.14;50.85;101425.41;5112809;28;20055;-77
2021/03/30 11:18:26;;;;;;;9.77;6.47;;;;;;;18.29;50.56;101418.44;5112083;28;20058;-76
2021/03/30 11:21:10;;;;;;;12.85;6.45;;;;;;;18.35;50.46;101423.44;5112362;28;20047;-77
2021/03/30 11:24:01;;;;;;;12.25;6.88;;;;;;;18.44;50.34;101425.63;5111513;28;20089;-77
2021/03/30 11:26:48;;;;;;;10.90;5.97;;;;;;;18.45;50.21;101423.81;5112072;28;20144;-77
2021/03/30 11:29:40;;;;;;;10.40;5.45;;;;;;;18.31;50.62;101421.88;5111866;28;20094;-75
2021/03/30 11:35:32;;;;;;;7.90;5.50;;;;;;;18.35;50.46;101418.16;5104773;28;20059;-78
2021/03/30 11:38:20;;;;;;;9.90;5.93;;;;;;;18.45;50.08;101419.34;5112455;28;20058;-77
2021/03/30 11:41:05;;;;;;;12.45;7.30;;;;;;;18.45;49.93;101413.19;5114789;28;20058;-77
2021/03/30 11:43:50;;;;;;;11.45;7.50;;;;;;;18.38;50.54;101407.34;5112227;28;20066;-77
2021/03/30 11:46:35;;;;;;;13.35;6.85;;;;;;;18.51;50.59;101408.41;5111787;28;20050;-77
2021/03/30 11:49:20;;;;;;;8.35;6.13;;;;;;;18.32;50.84;101396.19;5110232;28;20054;-77
2021/03/30 11:52:06;;;;;;;11.27;6.82;;;;;;;18.11;51.24;101400.81;5111663;28;20058;-76
2021/03/30 11:54:51;;;;;;;8.85;6.50;;;;;;;18.08;51.77;101403.63;5111615;28;20061;-77
2021/03/30 11:57:35;;;;;;;9.15;6.72;;;;;;;17.93;51.85;101398.19;5111458;28;20051;-76
2021/03/30 12:00:21;;;;;;;13.43;5.72;;;;;;;17.82;51.85;101391.69;5110912;28;20431;-76
2021/03/30 12:03:05;;;;;;;8.35;5.85;;;;;;;17.91;51.90;101397.41;5110751;28;20093;-76
2021/03/30 12:05:51;;;;;;;11.07;7.07;;;;;;;18.03;51.61;101392.41;5108325;28;20135;-76
2021/03/30 12:08:39;;;;;;;11.10;6.60;;;;;;;17.94;51.46;101386.63;5109461;28;20488;-75
2021/03/30 12:11:24;;;;;;;11.10;6.85;;;;;;;18.01;51.41;101392.47;5110641;28;20438;-76
2021/03/30 12:14:10;;;;;;;9.73;5.70;;;;;;;18.07;51.54;101384.19;5110818;28;20062;-76
2021/03/30 12:16:55;;;;;;;10.20;6.53;;;;;;;18.14;51.42;101390.06;5111291;28;20046;-76
2021/03/30 12:19:40;;;;;;;10.48;5.97;;;;;;;18.13;51.34;101386.53;5111043;28;20513;-77
2021/03/30 12:22:25;;;;;;;10.50;6.60;;;;;;;18.24;50.91;101378.88;5111098;28;20059;-77
2021/03/30 12:25:12;;;;;;;11.10;6.40;;;;;;;18.46;50.59;101380.38;5111517;28;20394;-78
2021/03/30 12:27:56;;;;;;;18.85;8.68;;;;;;;18.55;50.54;101382.56;5111342;28;20432;-76
2021/03/30 12:30:41;;;;;;;13.32;8.35;;;;;;;18.45;50.93;101381.34;5110811;28;20567;-77
2021/03/30 12:33:26;;;;;;;13.93;7.60;;;;;;;18.24;51.50;101385.97;5110313;28;20464;-77
2021/03/30 12:36:11;;;;;;;19.40;9.18;;;;;;;18.20;51.63;101381.78;5109270;28;20062;-77
2021/03/30 12:38:58;;;;;;;21.05;9.00;;;;;;;18.15;51.58;101378.50;5109342;28;20083;-75
2021/03/30 12:41:42;;;;;;;8.38;5.60;;;;;;;17.90;52.10;101381.53;5111040;28;20517;-76
2021/03/30 12:44:27;;;;;;;10.57;6.38;;;;;;;17.83;52.13;101381.00;5118073;28;20800;-75
2021/03/30 12:47:12;;;;;;;23.88;13.02;;;;;;;17.82;52.61;101381.06;5113769;28;20526;-77
2021/03/30 12:49:56;;;;;;;13.52;8.23;;;;;;;17.91;52.02;101380.63;5111226;28;20144;-77